Terminal Aerodrome Forecast
Issued by NWS

Home | Current Version | Previous Version | Text Only | Print | Product List | Glossary On
Versions: 1 2 3 4 5 6 7 8 9 10 11 12 13 14 15 16 17 18 19 20 21 22 23
000
FTUS41 KBUF 251120
TAFIAG
TAF
KIAG 251120Z 2512/2612 22010KT P6SM BKN120 WS020/21035KT
     FM251700 23012G18KT P6SM BKN080
     FM252300 23008KT P6SM SCT080
     FM260600 19004KT P6SM SCT250
     FM260900 18004KT P6SM BKN060
     FM261100 19006KT P6SM BKN200=

USA.gov is the U.S. government's official web portal to all federal, state and local government web resources and services.